RYR5971 LMML-LIMC
Flight info
| Callsign | RYR5971 |
|---|---|
| Flight time | N/A |
| Altitude | 38000 |
| Route | GZO M622 SOPIR DCT MABOX DCT ADEXI DCT ELB DCT NORNI DCT UPDIN DCT SPEZI DCT IDONA DCT MEBUR |
| Aircraft | B738/M-SDE2E3FGHIRWXY/LB1 |
Departure
| Time | 2026-04-28 17:41 |
|---|---|
| Airport | Malta International Airport (LMML) |
Arrival
| Time | N/A |
|---|---|
| Airport | Milan Malpensa International Airport (LIMC) |
| Time | Latitude | Longitude | Altitude | Speed | Heading |
|---|---|---|---|---|---|
| 2026-04-28 17:19 | 35.84951 | 14.49336 | 258 ft | 0 kts | 359° |
| 2026-04-28 17:35 | 35.84928 | 14.49337 | 258 ft | 2 kts | 359° |
| 2026-04-28 17:35 | 35.84906 | 14.49336 | 258 ft | 4 kts | 2° |
| 2026-04-28 17:36 | 35.84885 | 14.49339 | 258 ft | 4 kts | 341° |
| 2026-04-28 17:36 | 35.84863 | 14.49356 | 258 ft | 4 kts | 315° |
| 2026-04-28 17:36 | 35.84857 | 14.49362 | 258 ft | 0 kts | 314° |
| 2026-04-28 17:38 | 35.84863 | 14.49355 | 258 ft | 5 kts | 314° |
| 2026-04-28 17:38 | 35.84914 | 14.49291 | 258 ft | 14 kts | 312° |
| 2026-04-28 17:38 | 35.84934 | 14.49199 | 257 ft | 9 kts | 253° |
| 2026-04-28 17:39 | 35.84900 | 14.49140 | 257 ft | 9 kts | 250° |
| 2026-04-28 17:39 | 35.84925 | 14.49070 | 257 ft | 11 kts | 313° |
| 2026-04-28 17:39 | 35.84996 | 14.48872 | 257 ft | 3 kts | 284° |
| 2026-04-28 17:40 | 35.84998 | 14.48862 | 258 ft | 6 kts | 284° |
| 2026-04-28 17:40 | 35.85023 | 14.48756 | 261 ft | 19 kts | 287° |
| 2026-04-28 17:40 | 35.85032 | 14.48641 | 264 ft | 8 kts | 175° |
| 2026-04-28 17:40 | 35.84852 | 14.48859 | 258 ft | 79 kts | 135° |
| 2026-04-28 17:41 | 35.84263 | 14.49603 | 263 ft | 157 kts | 132° |
| 2026-04-28 17:41 | 35.83459 | 14.50646 | 981 ft | 172 kts | 133° |
| 2026-04-28 17:41 | 35.82448 | 14.51439 | 2055 ft | 181 kts | 168° |
| 2026-04-28 17:41 | 35.81204 | 14.51093 | 2879 ft | 201 kts | 212° |
| 2026-04-28 17:42 | 35.80323 | 14.49641 | 3311 ft | 224 kts | 241° |
| 2026-04-28 17:42 | 35.79849 | 14.48474 | 3694 ft | 228 kts | 239° |
| 2026-04-28 17:42 | 35.78818 | 14.46162 | 4385 ft | 243 kts | 238° |
| 2026-04-28 17:42 | 35.77926 | 14.44275 | 4637 ft | 267 kts | 238° |
| 2026-04-28 17:43 | 35.76955 | 14.42265 | 5348 ft | 276 kts | 238° |
| 2026-04-28 17:43 | 35.76004 | 14.40210 | 6322 ft | 277 kts | 246° |
| 2026-04-28 17:43 | 35.75615 | 14.37891 | 7214 ft | 280 kts | 271° |
| 2026-04-28 17:43 | 35.76025 | 14.35548 | 8078 ft | 284 kts | 294° |
| 2026-04-28 17:44 | 35.77177 | 14.33569 | 8883 ft | 289 kts | 318° |
| 2026-04-28 17:44 | 35.78891 | 14.32262 | 9730 ft | 292 kts | 336° |
| 2026-04-28 17:44 | 35.80787 | 14.31321 | 10521 ft | 299 kts | 338° |
| 2026-04-28 17:44 | 35.82806 | 14.30385 | 10784 ft | 323 kts | 338° |
| 2026-04-28 17:45 | 35.84980 | 14.29386 | 11121 ft | 341 kts | 337° |
| 2026-04-28 17:45 | 35.87223 | 14.28346 | 11806 ft | 347 kts | 337° |
| 2026-04-28 17:45 | 35.89481 | 14.27289 | 12633 ft | 348 kts | 336° |
| 2026-04-28 17:45 | 35.91745 | 14.26218 | 13442 ft | 350 kts | 336° |
| 2026-04-28 17:46 | 35.94024 | 14.25133 | 14184 ft | 353 kts | 336° |
| 2026-04-28 17:46 | 35.96329 | 14.24031 | 14885 ft | 357 kts | 336° |
| 2026-04-28 17:46 | 35.98658 | 14.22917 | 15622 ft | 360 kts | 335° |
| 2026-04-28 17:46 | 36.00998 | 14.21794 | 16303 ft | 363 kts | 335° |
| 2026-04-28 17:47 | 36.03367 | 14.20648 | 16958 ft | 366 kts | 333° |
| 2026-04-28 17:47 | 36.05570 | 14.19095 | 17586 ft | 366 kts | 322° |
| 2026-04-28 17:47 | 36.07638 | 14.17260 | 18249 ft | 368 kts | 321° |
| 2026-04-28 17:47 | 36.08316 | 14.16643 | 18462 ft | 369 kts | 321° |
| 2026-04-28 17:48 | 36.11092 | 14.14101 | 19290 ft | 374 kts | 321° |
| 2026-04-28 17:48 | 36.13878 | 14.11570 | 20144 ft | 376 kts | 321° |
| 2026-04-28 17:48 | 36.16004 | 14.09661 | 20717 ft | 380 kts | 321° |
| 2026-04-28 17:48 | 36.18153 | 14.07745 | 21276 ft | 382 kts | 321° |
| 2026-04-28 17:49 | 36.20324 | 14.05816 | 21820 ft | 385 kts | 321° |
| 2026-04-28 17:49 | 36.21801 | 14.04506 | 22167 ft | 387 kts | 321° |
| 2026-04-28 17:49 | 36.24000 | 14.02556 | 22695 ft | 390 kts | 321° |
| 2026-04-28 17:49 | 36.26210 | 14.00597 | 23196 ft | 392 kts | 321° |
| 2026-04-28 17:50 | 36.28436 | 13.98621 | 23676 ft | 395 kts | 321° |
| 2026-04-28 17:50 | 36.30674 | 13.96633 | 24131 ft | 397 kts | 321° |
| 2026-04-28 17:50 | 36.32926 | 13.94633 | 24598 ft | 399 kts | 321° |
| 2026-04-28 17:50 | 36.35157 | 13.92648 | 25095 ft | 400 kts | 321° |
| 2026-04-28 17:51 | 36.37449 | 13.90607 | 25588 ft | 401 kts | 321° |
| 2026-04-28 17:51 | 36.39687 | 13.88613 | 26035 ft | 402 kts | 320° |
| 2026-04-28 17:51 | 36.41960 | 13.86584 | 26489 ft | 403 kts | 320° |
| 2026-04-28 17:51 | 36.44236 | 13.84553 | 26930 ft | 403 kts | 320° |
| 2026-04-28 17:52 | 36.46514 | 13.82519 | 27368 ft | 404 kts | 320° |
| 2026-04-28 17:52 | 36.48799 | 13.80476 | 27770 ft | 405 kts | 320° |
| 2026-04-28 17:52 | 36.53381 | 13.76375 | 28544 ft | 406 kts | 319° |
| 2026-04-28 17:53 | 36.55676 | 13.74316 | 28910 ft | 407 kts | 319° |
| 2026-04-28 17:53 | 36.57972 | 13.72249 | 29230 ft | 408 kts | 319° |
| 2026-04-28 17:53 | 36.60278 | 13.70173 | 29538 ft | 410 kts | 319° |
| 2026-04-28 17:53 | 36.62594 | 13.68088 | 29892 ft | 411 kts | 319° |
| 2026-04-28 17:54 | 36.64912 | 13.66001 | 30224 ft | 411 kts | 319° |
| 2026-04-28 17:54 | 36.67222 | 13.63921 | 30621 ft | 410 kts | 318° |
| 2026-04-28 17:54 | 36.69537 | 13.61833 | 30960 ft | 410 kts | 318° |
| 2026-04-28 17:54 | 36.71844 | 13.59747 | 31321 ft | 410 kts | 318° |
| 2026-04-28 17:55 | 36.74151 | 13.57665 | 31711 ft | 409 kts | 318° |
| 2026-04-28 17:55 | 36.76452 | 13.55587 | 32052 ft | 408 kts | 318° |
| 2026-04-28 17:55 | 36.78748 | 13.53510 | 32341 ft | 408 kts | 318° |
| 2026-04-28 17:55 | 36.81049 | 13.51428 | 32673 ft | 408 kts | 318° |
| 2026-04-28 17:56 | 36.83342 | 13.49351 | 33002 ft | 407 kts | 317° |
| 2026-04-28 17:56 | 36.85638 | 13.47269 | 33314 ft | 407 kts | 317° |
| 2026-04-28 17:56 | 36.87921 | 13.45198 | 33641 ft | 406 kts | 317° |
| 2026-04-28 17:56 | 36.90211 | 13.43118 | 33904 ft | 407 kts | 317° |
| 2026-04-28 17:57 | 36.92493 | 13.41043 | 34188 ft | 406 kts | 317° |
| 2026-04-28 17:57 | 36.94772 | 13.38970 | 34506 ft | 405 kts | 317° |
| 2026-04-28 17:57 | 36.97053 | 13.36894 | 34750 ft | 406 kts | 317° |
| 2026-04-28 17:57 | 36.99341 | 13.34810 | 34973 ft | 406 kts | 317° |
| 2026-04-28 17:58 | 37.01624 | 13.32728 | 35261 ft | 406 kts | 317° |
| 2026-04-28 17:58 | 37.03899 | 13.30653 | 35551 ft | 404 kts | 317° |
| 2026-04-28 17:58 | 37.06173 | 13.28576 | 35768 ft | 405 kts | 317° |
| 2026-04-28 17:58 | 37.08449 | 13.26496 | 35987 ft | 405 kts | 318° |
| 2026-04-28 17:59 | 37.10727 | 13.24413 | 36205 ft | 405 kts | 318° |
| 2026-04-28 17:59 | 37.13007 | 13.22328 | 36433 ft | 405 kts | 318° |
| 2026-04-28 17:59 | 37.15286 | 13.20241 | 36603 ft | 407 kts | 318° |
| 2026-04-28 17:59 | 37.17537 | 13.18176 | 36808 ft | 406 kts | 318° |
| 2026-04-28 18:00 | 37.19815 | 13.16090 | 37084 ft | 404 kts | 318° |
| 2026-04-28 18:00 | 37.22081 | 13.14013 | 37358 ft | 403 kts | 318° |
| 2026-04-28 18:00 | 37.24340 | 13.11940 | 37540 ft | 403 kts | 318° |
| 2026-04-28 18:00 | 37.26601 | 13.09863 | 37732 ft | 402 kts | 318° |
| 2026-04-28 18:01 | 37.28857 | 13.07790 | 37982 ft | 400 kts | 318° |
| 2026-04-28 18:01 | 37.31104 | 13.05722 | 38020 ft | 403 kts | 318° |
| 2026-04-28 18:01 | 37.35854 | 13.01913 | 38032 ft | 409 kts | 329° |
| 2026-04-28 18:02 | 37.41211 | 12.99432 | 38037 ft | 409 kts | 334° |
| 2026-04-28 18:02 | 37.46567 | 12.97077 | 38043 ft | 406 kts | 334° |
| 2026-04-28 18:03 | 37.51896 | 12.94701 | 38041 ft | 408 kts | 333° |
| 2026-04-28 18:03 | 37.57296 | 12.92263 | 38058 ft | 416 kts | 333° |
| 2026-04-28 18:04 | 37.62791 | 12.89774 | 38056 ft | 423 kts | 333° |
| 2026-04-28 18:04 | 37.68341 | 12.87261 | 38044 ft | 426 kts | 333° |
| 2026-04-28 18:05 | 37.72989 | 12.85153 | 38050 ft | 428 kts | 333° |
| 2026-04-28 18:05 | 37.79548 | 12.82173 | 38042 ft | 429 kts | 333° |
| 2026-04-28 18:06 | 37.85159 | 12.79619 | 38038 ft | 428 kts | 333° |
| 2026-04-28 18:06 | 37.90752 | 12.77068 | 38039 ft | 427 kts | 333° |
| 2026-04-28 18:07 | 37.96323 | 12.74523 | 38044 ft | 425 kts | 333° |
| 2026-04-28 18:07 | 38.01874 | 12.71983 | 38035 ft | 423 kts | 333° |
| 2026-04-28 18:08 | 38.07401 | 12.69449 | 38053 ft | 422 kts | 333° |
| 2026-04-28 18:08 | 38.12912 | 12.66918 | 38041 ft | 421 kts | 333° |
| 2026-04-28 18:09 | 38.18413 | 12.64388 | 38040 ft | 420 kts | 333° |
| 2026-04-28 18:09 | 38.23907 | 12.61856 | 38046 ft | 420 kts | 333° |
| 2026-04-28 18:10 | 38.29402 | 12.59319 | 38049 ft | 421 kts | 333° |
| 2026-04-28 18:10 | 38.34873 | 12.56790 | 38048 ft | 422 kts | 333° |
| 2026-04-28 18:11 | 38.40401 | 12.54231 | 38049 ft | 424 kts | 333° |
| 2026-04-28 18:11 | 38.45957 | 12.51653 | 38049 ft | 426 kts | 333° |
| 2026-04-28 18:12 | 38.51527 | 12.49063 | 38039 ft | 427 kts | 334° |
| 2026-04-28 18:12 | 38.57122 | 12.46462 | 38027 ft | 428 kts | 334° |
| 2026-04-28 18:13 | 38.62729 | 12.43851 | 38021 ft | 429 kts | 334° |
| 2026-04-28 18:13 | 38.68332 | 12.41238 | 38021 ft | 428 kts | 334° |
| 2026-04-28 18:14 | 38.73927 | 12.38624 | 38013 ft | 427 kts | 334° |
| 2026-04-28 18:14 | 38.79499 | 12.36014 | 38019 ft | 426 kts | 334° |
| 2026-04-28 18:15 | 38.85052 | 12.33409 | 38015 ft | 424 kts | 334° |
| 2026-04-28 18:15 | 38.90579 | 12.30812 | 38021 ft | 423 kts | 334° |
| 2026-04-28 18:16 | 38.96097 | 12.28213 | 38011 ft | 421 kts | 334° |
| 2026-04-28 18:16 | 39.01597 | 12.25620 | 38022 ft | 420 kts | 334° |
| 2026-04-28 18:17 | 39.07080 | 12.23031 | 38023 ft | 419 kts | 334° |
| 2026-04-28 18:17 | 39.12551 | 12.20443 | 38028 ft | 419 kts | 334° |
| 2026-04-28 18:18 | 39.18031 | 12.17846 | 38017 ft | 420 kts | 334° |
| 2026-04-28 18:18 | 39.22588 | 12.15683 | 38023 ft | 420 kts | 334° |
| 2026-04-28 18:19 | 39.28961 | 12.12654 | 38019 ft | 421 kts | 334° |
| 2026-04-28 18:19 | 39.34461 | 12.10033 | 38016 ft | 422 kts | 334° |
| 2026-04-28 18:20 | 39.39970 | 12.07406 | 38022 ft | 422 kts | 334° |
| 2026-04-28 18:20 | 39.45488 | 12.04771 | 38018 ft | 423 kts | 335° |
| 2026-04-28 18:21 | 39.51014 | 12.02126 | 38017 ft | 424 kts | 335° |
| 2026-04-28 18:21 | 39.56540 | 11.99476 | 38019 ft | 424 kts | 335° |
| 2026-04-28 18:22 | 39.62077 | 11.96816 | 38016 ft | 424 kts | 335° |
| 2026-04-28 18:22 | 39.67616 | 11.94151 | 38019 ft | 424 kts | 335° |
| 2026-04-28 18:23 | 39.73156 | 11.91482 | 38018 ft | 424 kts | 335° |
| 2026-04-28 18:23 | 39.78690 | 11.88813 | 38016 ft | 424 kts | 335° |
| 2026-04-28 18:24 | 39.83285 | 11.86593 | 38020 ft | 424 kts | 335° |
| 2026-04-28 18:24 | 39.89738 | 11.83468 | 38021 ft | 423 kts | 335° |
| 2026-04-28 18:25 | 39.95255 | 11.80789 | 38017 ft | 423 kts | 335° |
| 2026-04-28 18:26 | 40.03515 | 11.76774 | 38017 ft | 422 kts | 335° |
| 2026-04-28 18:26 | 40.09020 | 11.74090 | 38020 ft | 422 kts | 335° |
| 2026-04-28 18:27 | 40.14514 | 11.71409 | 38016 ft | 421 kts | 335° |
| 2026-04-28 18:27 | 40.20003 | 11.68724 | 38021 ft | 421 kts | 335° |
| 2026-04-28 18:28 | 40.25496 | 11.66033 | 38016 ft | 421 kts | 335° |
| 2026-04-28 18:28 | 40.30984 | 11.63342 | 38020 ft | 421 kts | 335° |
| 2026-04-28 18:29 | 40.36428 | 11.60665 | 38019 ft | 421 kts | 335° |
| 2026-04-28 18:29 | 40.41914 | 11.57965 | 38018 ft | 421 kts | 335° |
| 2026-04-28 18:30 | 40.47403 | 11.55257 | 38018 ft | 422 kts | 335° |
| 2026-04-28 18:30 | 40.52898 | 11.52542 | 38017 ft | 422 kts | 335° |
| 2026-04-28 18:31 | 40.58386 | 11.49825 | 38023 ft | 422 kts | 335° |
| 2026-04-28 18:31 | 40.63885 | 11.47098 | 38019 ft | 422 kts | 335° |
| 2026-04-28 18:32 | 40.69384 | 11.44368 | 38019 ft | 423 kts | 335° |
| 2026-04-28 18:32 | 40.74886 | 11.41630 | 38017 ft | 423 kts | 335° |
| 2026-04-28 18:33 | 40.80390 | 11.38884 | 38021 ft | 423 kts | 335° |
| 2026-04-28 18:33 | 40.85887 | 11.36145 | 38018 ft | 423 kts | 335° |
| 2026-04-28 18:34 | 40.91397 | 11.33386 | 38027 ft | 423 kts | 335° |
| 2026-04-28 18:34 | 40.96903 | 11.30624 | 38027 ft | 423 kts | 335° |
| 2026-04-28 18:35 | 41.02395 | 11.27866 | 38033 ft | 422 kts | 335° |
| 2026-04-28 18:35 | 41.07857 | 11.25119 | 38038 ft | 422 kts | 335° |
| 2026-04-28 18:36 | 41.13341 | 11.22357 | 38037 ft | 422 kts | 335° |
| 2026-04-28 18:36 | 41.18823 | 11.19590 | 38038 ft | 421 kts | 335° |
| 2026-04-28 18:37 | 41.24303 | 11.16818 | 38037 ft | 421 kts | 335° |
| 2026-04-28 18:37 | 41.28888 | 11.14495 | 38033 ft | 421 kts | 335° |
| 2026-04-28 18:38 | 41.34329 | 11.11735 | 38037 ft | 421 kts | 335° |
| 2026-04-28 18:38 | 41.39830 | 11.08940 | 38037 ft | 420 kts | 335° |
| 2026-04-28 18:39 | 41.45293 | 11.06159 | 38037 ft | 420 kts | 335° |
| 2026-04-28 18:39 | 41.50722 | 11.03389 | 38031 ft | 420 kts | 335° |
| 2026-04-28 18:40 | 41.56176 | 11.00603 | 38027 ft | 420 kts | 335° |
| 2026-04-28 18:40 | 41.61641 | 10.97803 | 38026 ft | 420 kts | 335° |
| 2026-04-28 18:41 | 41.67101 | 10.95003 | 38029 ft | 421 kts | 335° |
| 2026-04-28 18:41 | 41.72566 | 10.92196 | 38027 ft | 420 kts | 335° |
| 2026-04-28 18:42 | 41.78026 | 10.89386 | 38033 ft | 420 kts | 335° |
| 2026-04-28 18:42 | 41.83475 | 10.86576 | 38036 ft | 420 kts | 335° |
| 2026-04-28 18:43 | 41.88937 | 10.83754 | 38038 ft | 420 kts | 335° |
| 2026-04-28 18:43 | 41.94394 | 10.80930 | 38037 ft | 420 kts | 335° |
| 2026-04-28 18:44 | 41.99848 | 10.78101 | 38036 ft | 420 kts | 335° |
| 2026-04-28 18:44 | 42.08024 | 10.73854 | 38034 ft | 420 kts | 335° |
| 2026-04-28 18:45 | 42.13466 | 10.71018 | 38037 ft | 419 kts | 335° |
| 2026-04-28 18:45 | 42.18901 | 10.68181 | 38034 ft | 419 kts | 335° |
| 2026-04-28 18:46 | 42.24331 | 10.65342 | 38037 ft | 418 kts | 335° |
| 2026-04-28 18:46 | 42.29762 | 10.62497 | 38036 ft | 418 kts | 335° |
| 2026-04-28 18:47 | 42.35183 | 10.59651 | 38038 ft | 418 kts | 335° |
| 2026-04-28 18:47 | 42.40610 | 10.56798 | 38037 ft | 418 kts | 335° |
| 2026-04-28 18:48 | 42.45995 | 10.53962 | 38039 ft | 418 kts | 335° |
| 2026-04-28 18:48 | 42.51413 | 10.51102 | 38037 ft | 418 kts | 335° |
| 2026-04-28 18:49 | 42.55950 | 10.48703 | 38037 ft | 418 kts | 335° |
| 2026-04-28 18:49 | 42.62239 | 10.45372 | 38044 ft | 417 kts | 335° |
| 2026-04-28 18:50 | 42.67641 | 10.42504 | 38048 ft | 417 kts | 335° |
| 2026-04-28 18:50 | 42.73046 | 10.39615 | 38049 ft | 417 kts | 333° |
| 2026-04-28 18:51 | 42.78160 | 10.35990 | 38050 ft | 414 kts | 327° |
| 2026-04-28 18:51 | 42.83165 | 10.32111 | 38035 ft | 414 kts | 327° |
| 2026-04-28 18:52 | 42.88184 | 10.28256 | 38039 ft | 414 kts | 327° |
| 2026-04-28 18:52 | 42.93221 | 10.24428 | 38036 ft | 414 kts | 327° |